createdAt,value
2023-11-26T00:00:45.832Z,3.23
2023-11-26T00:03:13.345Z,2.50
2023-11-26T00:05:40.773Z,3.07
2023-11-26T00:08:08.208Z,3.20
2023-11-26T00:10:35.622Z,3.60
2023-11-26T00:13:02.946Z,3.80
2023-11-26T00:15:30.229Z,3.50
2023-11-26T00:17:57.618Z,3.87
2023-11-26T00:20:25.416Z,2.93
2023-11-26T00:22:52.803Z,3.00
2023-11-26T00:25:20.214Z,3.20
2023-11-26T00:27:47.572Z,3.30
2023-11-26T00:30:15.123Z,3.23
2023-11-26T00:32:42.458Z,3.07
2023-11-26T00:35:13.689Z,3.90
2023-11-26T00:37:41.098Z,3.40
2023-11-26T00:40:08.846Z,3.03
2023-11-26T00:42:36.193Z,3.37
2023-11-26T00:45:03.975Z,3.20
2023-11-26T00:47:31.449Z,2.97
2023-11-26T00:50:02.654Z,2.73
2023-11-26T00:52:30.295Z,2.97
2023-11-26T00:54:57.803Z,2.50
2023-11-26T00:57:26.629Z,3.80
2023-11-26T00:59:54.468Z,3.30
2023-11-26T01:02:24.396Z,2.33
2023-11-26T01:04:52.035Z,3.17
2023-11-26T01:07:19.719Z,3.43
2023-11-26T01:09:47.046Z,3.40
2023-11-26T01:12:14.433Z,3.97
2023-11-26T01:14:41.822Z,3.40
2023-11-26T01:17:09.218Z,4.10
2023-11-26T01:19:36.567Z,3.30
2023-11-26T01:22:04.929Z,3.33
2023-11-26T01:24:34.591Z,3.00
2023-11-26T01:27:02.602Z,3.17
2023-11-26T01:29:29.912Z,4.70
2023-11-26T01:31:57.652Z,4.30
2023-11-26T01:34:24.976Z,3.43
2023-11-26T01:36:52.288Z,3.97
2023-11-26T01:39:19.742Z,3.27
2023-11-26T01:41:47.066Z,3.83
2023-11-26T01:44:14.436Z,2.53
2023-11-26T01:46:42.485Z,2.80
2023-11-26T01:49:09.925Z,3.17
2023-11-26T01:51:37.666Z,4.20
2023-11-26T01:54:05.650Z,3.00
2023-11-26T01:56:33.101Z,4.57
2023-11-26T01:59:00.477Z,3.73
2023-11-26T02:01:28.549Z,2.83
2023-11-26T02:03:55.965Z,2.20
2023-11-26T02:06:23.381Z,2.83
2023-11-26T02:08:50.880Z,3.27
2023-11-26T02:11:18.994Z,2.73
2023-11-26T02:13:52.011Z,3.20
2023-11-26T02:16:19.420Z,3.60
2023-11-26T02:18:48.121Z,3.40
2023-11-26T02:21:15.474Z,2.27
2023-11-26T02:23:42.943Z,3.27
2023-11-26T02:26:13.255Z,2.90
2023-11-26T02:28:42.740Z,2.73
2023-11-26T02:33:54.003Z,3.00
2023-11-26T02:36:27.579Z,3.00
2023-11-26T02:38:55.601Z,3.30
2023-11-26T02:41:22.986Z,2.80
2023-11-26T02:43:50.405Z,3.67
2023-11-26T02:46:17.846Z,3.90
2023-11-26T02:53:39.840Z,3.70
2023-11-26T02:56:07.465Z,3.43
2023-11-26T02:58:34.785Z,3.43
2023-11-26T03:01:02.243Z,3.57
2023-11-26T03:03:29.639Z,3.40
2023-11-26T03:05:56.942Z,4.47
2023-11-26T03:08:33.595Z,3.40
2023-11-26T03:11:19.699Z,3.73
2023-11-26T03:13:47.855Z,3.53
2023-11-26T03:16:17.608Z,3.27
2023-11-26T03:18:45.052Z,4.07
2023-11-26T03:21:17.189Z,3.33
2023-11-26T03:23:45.048Z,3.73
2023-11-26T03:26:12.508Z,3.87
2023-11-26T03:28:40.080Z,3.80
2023-11-26T03:31:07.386Z,5.33
2023-11-26T03:33:35.653Z,3.53
2023-11-26T03:36:03.095Z,3.97
2023-11-26T03:38:30.424Z,3.60
2023-11-26T03:40:57.763Z,4.47
2023-11-26T03:43:25.973Z,3.43
2023-11-26T04:00:39.768Z,4.33
2023-11-26T04:03:07.188Z,3.33
2023-11-26T04:05:34.590Z,3.33
2023-11-26T04:08:01.981Z,3.37
2023-11-26T04:10:35.206Z,3.83
2023-11-26T04:13:08.333Z,3.23
2023-11-26T04:15:37.626Z,3.60
2023-11-26T04:18:05.282Z,3.63
2023-11-26T04:20:32.656Z,3.40
2023-11-26T04:23:00.125Z,3.17
2023-11-26T04:25:27.445Z,3.60
2023-11-26T04:27:54.747Z,3.53
2023-11-26T04:30:22.951Z,4.20
2023-11-26T04:32:50.315Z,4.17
2023-11-26T04:35:17.613Z,3.97
2023-11-26T04:37:45.003Z,4.10
2023-11-26T04:40:12.727Z,4.20
2023-11-26T04:42:40.135Z,3.63
2023-11-26T04:45:09.207Z,3.13
2023-11-26T07:56:54.649Z,5.67
2023-11-26T07:59:22.184Z,5.17
2023-11-26T08:01:53.929Z,4.90
2023-11-26T08:04:21.604Z,5.40
2023-11-26T08:09:16.800Z,5.33
2023-11-26T08:11:46.201Z,5.77
2023-11-26T08:14:14.288Z,5.33
2023-11-26T08:16:42.178Z,5.60
2023-11-26T08:19:19.786Z,5.43
2023-11-26T08:21:49.001Z,5.27
2023-11-26T08:24:19.963Z,6.63
2023-11-26T08:26:48.362Z,5.53
2023-11-26T08:29:19.738Z,6.43
2023-11-26T08:31:50.727Z,5.40
2023-11-26T08:34:18.867Z,6.40
2023-11-26T08:36:46.512Z,6.47
2023-11-26T08:39:27.265Z,7.33
2023-11-26T08:41:55.169Z,7.00
2023-11-26T08:44:22.461Z,6.87
2023-11-26T08:46:49.926Z,6.30
2023-11-26T08:49:22.317Z,6.70
2023-11-26T08:51:49.897Z,7.13
2023-11-26T08:54:17.306Z,7.17
2023-11-26T08:56:44.644Z,6.53
2023-11-26T08:59:11.952Z,6.40
2023-11-26T09:01:39.424Z,6.57
2023-11-26T09:04:07.296Z,6.53
2023-11-26T09:06:34.703Z,5.40
2023-11-26T09:09:02.124Z,5.73
2023-11-26T09:11:29.776Z,6.27
2023-11-26T09:13:59.274Z,7.10
2023-11-26T09:16:27.215Z,6.40
2023-11-26T09:18:54.570Z,6.97
2023-11-26T09:21:24.170Z,7.57
2023-11-26T09:23:53.279Z,7.17
2023-11-26T09:26:20.682Z,6.13
2023-11-26T09:28:53.882Z,6.40
2023-11-26T09:31:24.910Z,5.93
2023-11-26T09:33:52.357Z,6.23
2023-11-26T09:36:19.834Z,7.37
2023-11-26T09:38:47.227Z,5.07
2023-11-26T09:41:21.412Z,5.67
2023-11-26T09:43:49.053Z,5.67
2023-11-26T09:46:17.141Z,5.80
2023-11-26T09:48:46.552Z,5.93
2023-11-26T09:51:15.598Z,6.13
2023-11-26T09:53:43.039Z,5.73
2023-11-26T10:20:55.134Z,5.47
2023-11-26T10:23:37.201Z,4.40
2023-11-26T15:07:43.632Z,9.37
2023-11-26T15:15:11.662Z,6.67
2023-11-26T15:17:42.388Z,7.93
2023-11-26T15:20:13.717Z,8.40
2023-11-26T15:22:42.193Z,10.40
2023-11-26T15:25:12.676Z,10.37
2023-11-26T15:27:40.591Z,9.43
2023-11-26T15:30:10.207Z,10.10
2023-11-26T15:32:38.377Z,9.97
2023-11-26T15:35:05.934Z,9.43
2023-11-26T15:37:33.272Z,8.73
2023-11-26T15:40:00.632Z,9.43
2023-11-26T18:50:25.457Z,7.30
2023-11-26T18:55:20.146Z,8.17
2023-11-26T18:57:47.507Z,8.10
2023-11-26T19:00:15.321Z,10.00
2023-11-26T19:02:43.040Z,7.77
2023-11-26T19:05:11.335Z,7.37
2023-11-26T19:07:38.732Z,7.43
2023-11-26T19:10:06.347Z,7.33
2023-11-26T19:12:33.798Z,6.80
2023-11-26T19:15:01.195Z,7.10
2023-11-26T19:17:28.762Z,7.43
2023-11-26T19:19:56.136Z,6.03
2023-11-26T19:22:23.591Z,6.33
2023-11-26T19:24:51.037Z,6.50
2023-11-26T19:27:19.275Z,8.23
2023-11-26T19:29:46.798Z,8.00
2023-11-26T19:32:14.099Z,6.57
2023-11-26T19:34:41.694Z,7.43
2023-11-26T19:37:12.551Z,6.53
2023-11-26T19:39:44.520Z,6.27
2023-11-26T19:42:14.417Z,7.30
2023-11-26T19:44:41.885Z,8.27
2023-11-26T19:47:09.370Z,7.77
2023-11-26T19:49:36.688Z,7.80
2023-11-26T19:52:04.274Z,7.23
2023-11-26T19:54:31.804Z,6.60
2023-11-26T19:56:59.173Z,7.30
2023-11-26T19:59:26.464Z,5.80
2023-11-26T20:01:53.932Z,7.43
2023-11-26T20:04:26.545Z,6.67
2023-11-26T20:06:58.021Z,6.35
2023-11-26T20:09:27.740Z,7.17
2023-11-26T20:11:55.567Z,6.90
2023-11-26T20:14:24.285Z,6.93
2023-11-26T20:16:53.050Z,7.00
2023-11-26T20:19:20.400Z,7.93
2023-11-26T20:21:47.965Z,6.87
2023-11-26T20:24:18.559Z,7.63
2023-11-26T20:26:46.190Z,6.13
2023-11-26T20:29:13.602Z,6.93
2023-11-26T20:31:41.226Z,7.10
2023-11-26T20:34:08.758Z,7.13
2023-11-26T20:36:36.283Z,7.20
2023-11-26T20:39:03.809Z,8.37
2023-11-26T20:41:31.935Z,7.27
2023-11-26T20:44:00.011Z,6.00
2023-11-26T20:46:27.385Z,6.33
2023-11-26T20:48:54.920Z,7.47
2023-11-26T20:51:26.713Z,6.20
2023-11-26T20:53:56.628Z,6.00
2023-11-26T20:56:28.146Z,5.93
2023-11-26T20:58:56.473Z,5.13
2023-11-26T21:01:24.123Z,5.60
2023-11-26T21:03:51.616Z,5.80
2023-11-26T21:06:19.552Z,4.50
2023-11-26T21:08:47.021Z,4.40
2023-11-26T21:11:14.388Z,4.83
2023-11-26T21:13:41.817Z,6.00
2023-11-26T21:16:09.905Z,5.07
2023-11-26T21:18:37.350Z,4.80
2023-11-26T21:21:04.747Z,4.23
2023-11-26T21:23:32.058Z,4.73
2023-11-26T21:25:59.356Z,4.73
2023-11-26T21:28:26.724Z,4.40
2023-11-26T21:30:54.066Z,5.00
2023-11-26T21:33:21.541Z,4.80
2023-11-26T21:35:49.073Z,5.13
2023-11-26T21:38:16.376Z,4.13
2023-11-26T21:40:53.004Z,4.83
2023-11-26T21:43:24.655Z,5.57
2023-11-26T21:45:52.722Z,5.17
2023-11-26T21:48:20.867Z,5.10
2023-11-26T21:50:48.295Z,5.83
2023-11-26T21:53:15.710Z,5.83
2023-11-26T21:55:45.924Z,5.53
2023-11-26T21:58:13.332Z,5.37
2023-11-26T22:00:43.871Z,6.03
2023-11-26T22:03:11.418Z,4.90
2023-11-26T22:05:38.820Z,4.20
2023-11-26T22:08:06.203Z,4.07
2023-11-26T22:10:33.524Z,4.47
2023-11-26T22:13:00.877Z,4.23
2023-11-26T22:15:28.215Z,4.00
2023-11-26T22:17:55.588Z,5.20
2023-11-26T22:20:23.113Z,4.37
2023-11-26T22:22:51.420Z,4.10
2023-11-26T22:25:18.762Z,4.03
2023-11-26T22:27:46.631Z,3.50
2023-11-26T22:30:14.263Z,10.53
2023-11-26T22:32:41.662Z,9.00
2023-11-26T22:35:11.891Z,4.87
2023-11-26T22:37:39.846Z,6.17
2023-11-26T22:40:07.527Z,5.43
2023-11-26T22:42:34.996Z,5.00
2023-11-26T22:45:02.408Z,5.23
2023-11-26T22:47:29.848Z,4.83
2023-11-26T22:49:57.309Z,5.17
2023-11-26T22:52:24.623Z,4.67
2023-11-26T22:54:51.955Z,4.73
2023-11-26T22:57:19.231Z,5.40
2023-11-26T22:59:46.516Z,6.00
2023-11-26T23:02:14.016Z,4.47
2023-11-26T23:04:41.507Z,4.53
2023-11-26T23:07:08.883Z,3.43
2023-11-26T23:09:36.152Z,3.90
2023-11-26T23:12:04.743Z,7.77
2023-11-26T23:14:32.101Z,5.10
2023-11-26T23:16:59.405Z,5.37
2023-11-26T23:19:26.701Z,4.07
2023-11-26T23:21:54.024Z,4.73
2023-11-26T23:24:21.347Z,4.43
2023-11-26T23:26:48.668Z,5.63
2023-11-26T23:29:15.956Z,3.87
2023-11-26T23:31:43.239Z,3.73
2023-11-26T23:34:10.651Z,3.77
2023-11-26T23:36:38.084Z,3.80
2023-11-26T23:39:07.382Z,3.53
2023-11-26T23:41:34.832Z,3.73
2023-11-26T23:44:02.174Z,3.57
2023-11-26T23:46:29.704Z,3.50
2023-11-26T23:48:57.080Z,8.83
2023-11-26T23:51:24.372Z,14.63
2023-11-26T23:53:51.668Z,5.80
2023-11-26T23:56:19.054Z,5.23
2023-11-26T23:58:46.926Z,3.37
